sensor_id;sensor_type;location;lat;lon;timestamp;temperature;humidity
21193;DHT22;10754;51.106;7.164;2023-05-19T00:01:51;16.50;99.90
21193;DHT22;10754;51.106;7.164;2023-05-19T00:04:17;16.40;99.90
21193;DHT22;10754;51.106;7.164;2023-05-19T00:06:43;16.40;99.90
21193;DHT22;10754;51.106;7.164;2023-05-19T00:09:12;16.40;99.90
21193;DHT22;10754;51.106;7.164;2023-05-19T00:11:39;16.40;99.90
21193;DHT22;10754;51.106;7.164;2023-05-19T00:14:07;16.40;99.90
21193;DHT22;10754;51.106;7.164;2023-05-19T00:16:33;16.30;99.90
21193;DHT22;10754;51.106;7.164;2023-05-19T00:19:02;16.30;99.90
21193;DHT22;10754;51.106;7.164;2023-05-19T00:21:28;16.30;99.90
21193;DHT22;10754;51.106;7.164;2023-05-19T00:23:54;16.20;99.90
21193;DHT22;10754;51.106;7.164;2023-05-19T00:26:20;16.20;99.90
21193;DHT22;10754;51.106;7.164;2023-05-19T00:28:49;16.20;99.90
21193;DHT22;10754;51.106;7.164;2023-05-19T00:31:15;16.10;99.90
21193;DHT22;10754;51.106;7.164;2023-05-19T00:33:40;16.10;99.90
21193;DHT22;10754;51.106;7.164;2023-05-19T00:36:06;16.00;99.90
21193;DHT22;10754;51.106;7.164;2023-05-19T00:38:34;16.00;99.90
21193;DHT22;10754;51.106;7.164;2023-05-19T00:41:01;15.90;99.90
21193;DHT22;10754;51.106;7.164;2023-05-19T00:43:26;15.90;99.90
21193;DHT22;10754;51.106;7.164;2023-05-19T00:45:54;15.80;99.90
21193;DHT22;10754;51.106;7.164;2023-05-19T00:48:20;15.70;99.90
21193;DHT22;10754;51.106;7.164;2023-05-19T00:50:46;15.70;99.90
21193;DHT22;10754;51.106;7.164;2023-05-19T00:53:13;15.60;1.40
21193;DHT22;10754;51.106;7.164;2023-05-19T00:55:41;15.60;99.90
21193;DHT22;10754;51.106;7.164;2023-05-19T00:58:08;15.60;99.90
21193;DHT22;10754;51.106;7.164;2023-05-19T01:00:35;15.60;99.90
21193;DHT22;10754;51.106;7.164;2023-05-19T01:03:01;15.50;99.90
21193;DHT22;10754;51.106;7.164;2023-05-19T01:05:27;15.50;1.00
21193;DHT22;10754;51.106;7.164;2023-05-19T01:07:54;15.40;99.90
21193;DHT22;10754;51.106;7.164;2023-05-19T01:10:21;15.30;1.00
21193;DHT22;10754;51.106;7.164;2023-05-19T01:12:47;15.30;1.40
21193;DHT22;10754;51.106;7.164;2023-05-19T01:15:13;15.30;1.00
21193;DHT22;10754;51.106;7.164;2023-05-19T01:17:54;15.30;99.90
21193;DHT22;10754;51.106;7.164;2023-05-19T01:20:27;15.30;1.40
21193;DHT22;10754;51.106;7.164;2023-05-19T01:25:51;15.10;1.40
21193;DHT22;10754;51.106;7.164;2023-05-19T01:29:11;15.10;1.00
21193;DHT22;10754;51.106;7.164;2023-05-19T01:31:19;15.00;1.00
21193;DHT22;10754;51.106;7.164;2023-05-19T01:33:45;15.00;1.00
21193;DHT22;10754;51.106;7.164;2023-05-19T01:36:13;14.90;1.00
21193;DHT22;10754;51.106;7.164;2023-05-19T01:38:39;14.90;1.00
21193;DHT22;10754;51.106;7.164;2023-05-19T01:41:07;14.90;1.00
21193;DHT22;10754;51.106;7.164;2023-05-19T01:43:34;14.90;1.00
21193;DHT22;10754;51.106;7.164;2023-05-19T01:46:00;14.80;1.00
21193;DHT22;10754;51.106;7.164;2023-05-19T01:48:27;14.80;1.00
21193;DHT22;10754;51.106;7.164;2023-05-19T01:50:53;14.80;1.00
21193;DHT22;10754;51.106;7.164;2023-05-19T01:53:22;14.70;1.00
21193;DHT22;10754;51.106;7.164;2023-05-19T01:55:50;14.70;1.00
21193;DHT22;10754;51.106;7.164;2023-05-19T02:06:59;14.50;1.00
21193;DHT22;10754;51.106;7.164;2023-05-19T02:09:45;14.50;1.00
21193;DHT22;10754;51.106;7.164;2023-05-19T02:12:22;14.50;1.00
21193;DHT22;10754;51.106;7.164;2023-05-19T02:14:54;14.40;1.00
21193;DHT22;10754;51.106;7.164;2023-05-19T02:17:26;14.40;1.00
21193;DHT22;10754;51.106;7.164;2023-05-19T02:19:53;14.30;1.00
21193;DHT22;10754;51.106;7.164;2023-05-19T02:22:19;14.30;1.00
21193;DHT22;10754;51.106;7.164;2023-05-19T02:24:44;14.30;1.00
21193;DHT22;10754;51.106;7.164;2023-05-19T02:27:12;14.30;1.00
21193;DHT22;10754;51.106;7.164;2023-05-19T02:29:37;14.20;1.00
21193;DHT22;10754;51.106;7.164;2023-05-19T02:32:04;14.20;1.00
21193;DHT22;10754;51.106;7.164;2023-05-19T02:34:30;14.20;1.00
21193;DHT22;10754;51.106;7.164;2023-05-19T02:36:55;14.20;1.00
21193;DHT22;10754;51.106;7.164;2023-05-19T02:39:21;14.10;1.00
21193;DHT22;10754;51.106;7.164;2023-05-19T02:41:47;14.10;1.00
21193;DHT22;10754;51.106;7.164;2023-05-19T02:44:12;14.10;1.00
21193;DHT22;10754;51.106;7.164;2023-05-19T02:46:38;14.10;1.00
21193;DHT22;10754;51.106;7.164;2023-05-19T02:49:03;14.00;1.00
21193;DHT22;10754;51.106;7.164;2023-05-19T02:51:29;14.00;1.00
21193;DHT22;10754;51.106;7.164;2023-05-19T02:53:55;14.00;1.00
21193;DHT22;10754;51.106;7.164;2023-05-19T02:56:20;14.00;1.00
21193;DHT22;10754;51.106;7.164;2023-05-19T02:58:46;13.90;1.00
21193;DHT22;10754;51.106;7.164;2023-05-19T03:01:11;13.90;1.00
21193;DHT22;10754;51.106;7.164;2023-05-19T03:03:37;13.90;1.00
21193;DHT22;10754;51.106;7.164;2023-05-19T03:06:02;14.00;1.00
21193;DHT22;10754;51.106;7.164;2023-05-19T03:08:28;14.00;1.00
21193;DHT22;10754;51.106;7.164;2023-05-19T03:10:53;14.10;1.00
21193;DHT22;10754;51.106;7.164;2023-05-19T03:13:19;14.10;1.00
21193;DHT22;10754;51.106;7.164;2023-05-19T03:15:44;14.20;1.00
21193;DHT22;10754;51.106;7.164;2023-05-19T03:18:10;14.20;1.00
21193;DHT22;10754;51.106;7.164;2023-05-19T03:20:39;14.30;1.00
21193;DHT22;10754;51.106;7.164;2023-05-19T03:23:06;14.30;1.00
21193;DHT22;10754;51.106;7.164;2023-05-19T03:25:33;14.30;1.00
21193;DHT22;10754;51.106;7.164;2023-05-19T03:27:58;14.30;1.00
21193;DHT22;10754;51.106;7.164;2023-05-19T03:30:24;14.40;1.00
21193;DHT22;10754;51.106;7.164;2023-05-19T03:32:49;14.40;1.00
21193;DHT22;10754;51.106;7.164;2023-05-19T03:35:16;14.40;1.00
21193;DHT22;10754;51.106;7.164;2023-05-19T03:37:41;14.50;1.00
21193;DHT22;10754;51.106;7.164;2023-05-19T03:40:08;14.50;1.00
21193;DHT22;10754;51.106;7.164;2023-05-19T03:42:33;14.40;1.00
21193;DHT22;10754;51.106;7.164;2023-05-19T03:44:59;14.50;1.00
21193;DHT22;10754;51.106;7.164;2023-05-19T03:47:24;14.50;1.00
21193;DHT22;10754;51.106;7.164;2023-05-19T03:49:50;14.50;1.00
21193;DHT22;10754;51.106;7.164;2023-05-19T03:52:15;14.50;1.00
21193;DHT22;10754;51.106;7.164;2023-05-19T03:54:41;14.50;1.00
21193;DHT22;10754;51.106;7.164;2023-05-19T03:57:08;14.50;1.00
21193;DHT22;10754;51.106;7.164;2023-05-19T03:59:34;14.60;1.00
21193;DHT22;10754;51.106;7.164;2023-05-19T04:02:01;14.50;1.00
21193;DHT22;10754;51.106;7.164;2023-05-19T04:04:27;14.50;1.00
21193;DHT22;10754;51.106;7.164;2023-05-19T04:06:52;14.60;1.00
21193;DHT22;10754;51.106;7.164;2023-05-19T04:09:18;14.60;1.00
21193;DHT22;10754;51.106;7.164;2023-05-19T04:11:43;14.60;1.00
21193;DHT22;10754;51.106;7.164;2023-05-19T04:14:09;14.60;1.00
21193;DHT22;10754;51.106;7.164;2023-05-19T04:16:35;14.60;1.00
21193;DHT22;10754;51.106;7.164;2023-05-19T04:19:00;14.60;1.00
21193;DHT22;10754;51.106;7.164;2023-05-19T04:21:26;14.60;1.00
21193;DHT22;10754;51.106;7.164;2023-05-19T04:23:52;14.60;1.00
21193;DHT22;10754;51.106;7.164;2023-05-19T04:26:18;14.60;1.00
21193;DHT22;10754;51.106;7.164;2023-05-19T04:28:46;14.60;1.00
21193;DHT22;10754;51.106;7.164;2023-05-19T04:31:12;14.60;1.00
21193;DHT22;10754;51.106;7.164;2023-05-19T04:33:39;14.60;1.00
21193;DHT22;10754;51.106;7.164;2023-05-19T04:36:08;14.60;1.00
21193;DHT22;10754;51.106;7.164;2023-05-19T04:38:35;14.60;1.00
21193;DHT22;10754;51.106;7.164;2023-05-19T04:41:01;14.70;1.00
21193;DHT22;10754;51.106;7.164;2023-05-19T04:43:27;14.70;1.00
21193;DHT22;10754;51.106;7.164;2023-05-19T04:45:53;14.70;1.00
21193;DHT22;10754;51.106;7.164;2023-05-19T04:48:19;14.70;1.00
21193;DHT22;10754;51.106;7.164;2023-05-19T04:50:46;14.70;1.00
21193;DHT22;10754;51.106;7.164;2023-05-19T04:53:13;14.70;1.00
21193;DHT22;10754;51.106;7.164;2023-05-19T04:55:39;14.80;1.00
21193;DHT22;10754;51.106;7.164;2023-05-19T04:58:04;14.80;1.00
21193;DHT22;10754;51.106;7.164;2023-05-19T05:00:31;14.70;1.00
21193;DHT22;10754;51.106;7.164;2023-05-19T05:02:57;14.70;1.00
21193;DHT22;10754;51.106;7.164;2023-05-19T05:05:22;14.70;1.00
21193;DHT22;10754;51.106;7.164;2023-05-19T05:07:48;14.80;1.00
21193;DHT22;10754;51.106;7.164;2023-05-19T05:10:14;14.70;1.00
21193;DHT22;10754;51.106;7.164;2023-05-19T05:12:40;14.80;1.00
21193;DHT22;10754;51.106;7.164;2023-05-19T05:15:06;14.80;1.00
21193;DHT22;10754;51.106;7.164;2023-05-19T05:17:33;14.80;1.00
21193;DHT22;10754;51.106;7.164;2023-05-19T05:20:01;14.80;1.00
21193;DHT22;10754;51.106;7.164;2023-05-19T05:22:27;14.80;1.00
21193;DHT22;10754;51.106;7.164;2023-05-19T05:24:53;14.80;1.00
21193;DHT22;10754;51.106;7.164;2023-05-19T05:27:18;14.80;1.00
21193;DHT22;10754;51.106;7.164;2023-05-19T05:29:44;14.80;1.00
21193;DHT22;10754;51.106;7.164;2023-05-19T05:32:10;14.90;1.00
21193;DHT22;10754;51.106;7.164;2023-05-19T05:34:35;14.80;1.00
21193;DHT22;10754;51.106;7.164;2023-05-19T05:37:02;14.80;1.00
21193;DHT22;10754;51.106;7.164;2023-05-19T05:39:27;14.90;1.00
21193;DHT22;10754;51.106;7.164;2023-05-19T05:41:53;14.90;1.00
21193;DHT22;10754;51.106;7.164;2023-05-19T05:44:19;14.90;1.00
21193;DHT22;10754;51.106;7.164;2023-05-19T05:46:44;14.90;1.00
21193;DHT22;10754;51.106;7.164;2023-05-19T05:49:10;14.90;1.00
21193;DHT22;10754;51.106;7.164;2023-05-19T05:51:38;15.00;1.00
21193;DHT22;10754;51.106;7.164;2023-05-19T05:54:05;15.00;1.00
21193;DHT22;10754;51.106;7.164;2023-05-19T05:56:31;15.00;1.00
21193;DHT22;10754;51.106;7.164;2023-05-19T05:58:58;15.10;1.00
21193;DHT22;10754;51.106;7.164;2023-05-19T06:01:24;15.10;1.00
21193;DHT22;10754;51.106;7.164;2023-05-19T06:03:50;15.00;1.00
21193;DHT22;10754;51.106;7.164;2023-05-19T06:06:15;15.10;1.00
21193;DHT22;10754;51.106;7.164;2023-05-19T06:08:41;15.10;1.00
21193;DHT22;10754;51.106;7.164;2023-05-19T06:11:07;15.10;1.00
21193;DHT22;10754;51.106;7.164;2023-05-19T06:13:36;15.20;1.00
21193;DHT22;10754;51.106;7.164;2023-05-19T06:16:02;15.20;1.00
21193;DHT22;10754;51.106;7.164;2023-05-19T06:18:28;15.30;1.00
21193;DHT22;10754;51.106;7.164;2023-05-19T06:20:54;15.30;1.00
21193;DHT22;10754;51.106;7.164;2023-05-19T06:23:19;15.30;1.00
21193;DHT22;10754;51.106;7.164;2023-05-19T06:25:45;15.30;1.00
21193;DHT22;10754;51.106;7.164;2023-05-19T06:28:11;15.40;1.00
21193;DHT22;10754;51.106;7.164;2023-05-19T06:30:36;15.50;1.00
21193;DHT22;10754;51.106;7.164;2023-05-19T06:33:02;15.50;1.00
21193;DHT22;10754;51.106;7.164;2023-05-19T06:35:28;15.60;1.00
21193;DHT22;10754;51.106;7.164;2023-05-19T06:37:54;15.70;99.90
21193;DHT22;10754;51.106;7.164;2023-05-19T06:40:24;15.80;99.90
21193;DHT22;10754;51.106;7.164;2023-05-19T06:42:49;15.80;99.90
21193;DHT22;10754;51.106;7.164;2023-05-19T06:45:15;15.70;99.90
21193;DHT22;10754;51.106;7.164;2023-05-19T06:47:40;15.80;99.90
21193;DHT22;10754;51.106;7.164;2023-05-19T06:50:08;15.80;99.90
21193;DHT22;10754;51.106;7.164;2023-05-19T06:52:34;15.80;99.90
21193;DHT22;10754;51.106;7.164;2023-05-19T06:54:59;15.80;99.90
21193;DHT22;10754;51.106;7.164;2023-05-19T06:57:25;15.80;99.90
21193;DHT22;10754;51.106;7.164;2023-05-19T06:59:51;15.80;99.90
21193;DHT22;10754;51.106;7.164;2023-05-19T07:02:16;15.90;99.90
21193;DHT22;10754;51.106;7.164;2023-05-19T07:04:42;15.90;99.90
21193;DHT22;10754;51.106;7.164;2023-05-19T07:07:07;16.00;99.90
21193;DHT22;10754;51.106;7.164;2023-05-19T07:09:33;16.10;99.90
21193;DHT22;10754;51.106;7.164;2023-05-19T07:11:59;16.20;99.90
21193;DHT22;10754;51.106;7.164;2023-05-19T07:14:25;16.30;99.90
21193;DHT22;10754;51.106;7.164;2023-05-19T07:16:51;16.40;99.90
21193;DHT22;10754;51.106;7.164;2023-05-19T07:19:17;16.30;99.90
21193;DHT22;10754;51.106;7.164;2023-05-19T07:21:45;16.40;99.90
21193;DHT22;10754;51.106;7.164;2023-05-19T07:24:10;16.50;99.90
21193;DHT22;10754;51.106;7.164;2023-05-19T07:26:36;16.60;99.90
21193;DHT22;10754;51.106;7.164;2023-05-19T07:29:01;16.80;99.90
21193;DHT22;10754;51.106;7.164;2023-05-19T07:31:27;16.70;99.90
21193;DHT22;10754;51.106;7.164;2023-05-19T07:33:53;16.90;99.90
21193;DHT22;10754;51.106;7.164;2023-05-19T07:36:18;16.90;99.90
21193;DHT22;10754;51.106;7.164;2023-05-19T07:38:45;16.90;99.90
21193;DHT22;10754;51.106;7.164;2023-05-19T07:41:11;16.90;99.90
21193;DHT22;10754;51.106;7.164;2023-05-19T07:43:36;17.20;99.90
21193;DHT22;10754;51.106;7.164;2023-05-19T07:46:02;17.10;99.90
21193;DHT22;10754;51.106;7.164;2023-05-19T07:48:27;17.00;99.90
21193;DHT22;10754;51.106;7.164;2023-05-19T07:50:54;17.00;99.90
21193;DHT22;10754;51.106;7.164;2023-05-19T07:53:19;17.20;99.90
21193;DHT22;10754;51.106;7.164;2023-05-19T07:55:46;17.20;99.90
21193;DHT22;10754;51.106;7.164;2023-05-19T07:58:12;17.10;99.90
21193;DHT22;10754;51.106;7.164;2023-05-19T08:00:38;17.10;99.90
21193;DHT22;10754;51.106;7.164;2023-05-19T08:03:03;17.50;99.90
21193;DHT22;10754;51.106;7.164;2023-05-19T08:05:29;17.70;99.90
21193;DHT22;10754;51.106;7.164;2023-05-19T08:07:55;17.80;99.90
21193;DHT22;10754;51.106;7.164;2023-05-19T08:10:21;18.00;99.90
21193;DHT22;10754;51.106;7.164;2023-05-19T08:12:47;17.80;99.90
21193;DHT22;10754;51.106;7.164;2023-05-19T08:15:12;17.60;99.90
21193;DHT22;10754;51.106;7.164;2023-05-19T08:17:41;17.60;99.90
21193;DHT22;10754;51.106;7.164;2023-05-19T08:20:06;17.80;99.90
21193;DHT22;10754;51.106;7.164;2023-05-19T08:22:34;17.70;99.90
21193;DHT22;10754;51.106;7.164;2023-05-19T08:25:00;17.60;99.90
21193;DHT22;10754;51.106;7.164;2023-05-19T08:27:25;17.80;99.90
21193;DHT22;10754;51.106;7.164;2023-05-19T08:29:51;17.80;99.90
21193;DHT22;10754;51.106;7.164;2023-05-19T08:32:16;17.70;99.90
21193;DHT22;10754;51.106;7.164;2023-05-19T08:34:42;17.80;99.90
21193;DHT22;10754;51.106;7.164;2023-05-19T08:37:08;17.90;99.90
21193;DHT22;10754;51.106;7.164;2023-05-19T08:39:35;18.00;99.90
21193;DHT22;10754;51.106;7.164;2023-05-19T08:42:00;18.20;99.90
21193;DHT22;10754;51.106;7.164;2023-05-19T08:44:26;18.70;99.90
21193;DHT22;10754;51.106;7.164;2023-05-19T08:46:54;18.50;99.90
21193;DHT22;10754;51.106;7.164;2023-05-19T08:49:26;18.60;99.90
21193;DHT22;10754;51.106;7.164;2023-05-19T08:51:59;18.60;99.90
21193;DHT22;10754;51.106;7.164;2023-05-19T08:54:31;18.50;99.90
21193;DHT22;10754;51.106;7.164;2023-05-19T08:57:01;18.40;99.90
21193;DHT22;10754;51.106;7.164;2023-05-19T08:59:26;18.60;99.90
21193;DHT22;10754;51.106;7.164;2023-05-19T09:01:53;18.90;99.90
21193;DHT22;10754;51.106;7.164;2023-05-19T09:04:19;19.00;99.90
21193;DHT22;10754;51.106;7.164;2023-05-19T09:06:45;18.90;99.90
21193;DHT22;10754;51.106;7.164;2023-05-19T09:09:10;18.90;99.90
21193;DHT22;10754;51.106;7.164;2023-05-19T09:11:36;18.90;99.90
21193;DHT22;10754;51.106;7.164;2023-05-19T09:14:03;18.90;99.90
21193;DHT22;10754;51.106;7.164;2023-05-19T09:16:29;19.00;99.90
21193;DHT22;10754;51.106;7.164;2023-05-19T09:18:56;19.50;99.90
21193;DHT22;10754;51.106;7.164;2023-05-19T09:21:31;19.40;99.90
21193;DHT22;10754;51.106;7.164;2023-05-19T09:24:02;19.70;99.90
21193;DHT22;10754;51.106;7.164;2023-05-19T09:26:41;19.60;99.90
21193;DHT22;10754;51.106;7.164;2023-05-19T09:29:17;19.50;99.90
21193;DHT22;10754;51.106;7.164;2023-05-19T09:31:49;19.40;99.90
21193;DHT22;10754;51.106;7.164;2023-05-19T09:34:15;19.20;99.90
21193;DHT22;10754;51.106;7.164;2023-05-19T09:36:41;19.30;99.90
21193;DHT22;10754;51.106;7.164;2023-05-19T09:39:17;19.30;99.90
21193;DHT22;10754;51.106;7.164;2023-05-19T09:41:43;19.30;99.90
21193;DHT22;10754;51.106;7.164;2023-05-19T09:44:27;19.30;99.90
21193;DHT22;10754;51.106;7.164;2023-05-19T09:46:54;19.40;99.90
21193;DHT22;10754;51.106;7.164;2023-05-19T09:49:25;19.40;99.90
21193;DHT22;10754;51.106;7.164;2023-05-19T09:52:01;19.60;99.90
21193;DHT22;10754;51.106;7.164;2023-05-19T09:54:27;19.90;99.90
21193;DHT22;10754;51.106;7.164;2023-05-19T09:57:00;20.00;99.90
21193;DHT22;10754;51.106;7.164;2023-05-19T09:59:27;19.90;99.90
21193;DHT22;10754;51.106;7.164;2023-05-19T10:02:00;19.90;99.90
21193;DHT22;10754;51.106;7.164;2023-05-19T10:04:27;19.90;99.90
21193;DHT22;10754;51.106;7.164;2023-05-19T10:06:54;19.90;99.90
21193;DHT22;10754;51.106;7.164;2023-05-19T10:09:25;20.40;99.90
21193;DHT22;10754;51.106;7.164;2023-05-19T10:11:55;20.20;99.90
21193;DHT22;10754;51.106;7.164;2023-05-19T10:14:25;20.70;99.90
21193;DHT22;10754;51.106;7.164;2023-05-19T10:16:53;20.70;99.90
21193;DHT22;10754;51.106;7.164;2023-05-19T10:19:21;21.00;99.90
21193;DHT22;10754;51.106;7.164;2023-05-19T10:21:47;20.90;99.90
21193;DHT22;10754;51.106;7.164;2023-05-19T10:24:13;21.20;99.90
21193;DHT22;10754;51.106;7.164;2023-05-19T10:26:44;21.10;99.90
21193;DHT22;10754;51.106;7.164;2023-05-19T10:29:14;21.50;99.90
21193;DHT22;10754;51.106;7.164;2023-05-19T10:31:42;21.40;99.90
21193;DHT22;10754;51.106;7.164;2023-05-19T10:34:35;21.30;99.90
21193;DHT22;10754;51.106;7.164;2023-05-19T10:40:29;21.30;99.90
21193;DHT22;10754;51.106;7.164;2023-05-19T10:45:47;21.20;99.90
21193;DHT22;10754;51.106;7.164;2023-05-19T10:48:18;21.30;99.90
21193;DHT22;10754;51.106;7.164;2023-05-19T10:50:48;21.40;99.90
21193;DHT22;10754;51.106;7.164;2023-05-19T10:53:17;21.60;99.90
21193;DHT22;10754;51.106;7.164;2023-05-19T10:55:53;21.70;99.90
21193;DHT22;10754;51.106;7.164;2023-05-19T10:58:40;21.60;99.90
21193;DHT22;10754;51.106;7.164;2023-05-19T11:01:19;21.80;99.90
21193;DHT22;10754;51.106;7.164;2023-05-19T11:03:52;22.30;99.90
21193;DHT22;10754;51.106;7.164;2023-05-19T11:06:19;22.50;99.90
21193;DHT22;10754;51.106;7.164;2023-05-19T11:08:46;22.60;99.90
21193;DHT22;10754;51.106;7.164;2023-05-19T11:11:14;22.70;99.90
21193;DHT22;10754;51.106;7.164;2023-05-19T11:13:46;22.80;99.90
21193;DHT22;10754;51.106;7.164;2023-05-19T11:16:13;22.70;99.90
21193;DHT22;10754;51.106;7.164;2023-05-19T11:18:39;22.60;99.90
21193;DHT22;10754;51.106;7.164;2023-05-19T11:21:05;22.60;99.90
21193;DHT22;10754;51.106;7.164;2023-05-19T11:23:37;22.50;99.90
21193;DHT22;10754;51.106;7.164;2023-05-19T11:26:06;22.60;99.90
21193;DHT22;10754;51.106;7.164;2023-05-19T11:28:32;23.00;99.90
21193;DHT22;10754;51.106;7.164;2023-05-19T11:30:59;23.10;99.90
21193;DHT22;10754;51.106;7.164;2023-05-19T11:33:26;23.20;99.90
21193;DHT22;10754;51.106;7.164;2023-05-19T11:35:53;23.40;99.90
21193;DHT22;10754;51.106;7.164;2023-05-19T11:38:21;23.60;99.90
21193;DHT22;10754;51.106;7.164;2023-05-19T11:40:48;23.70;99.90
21193;DHT22;10754;51.106;7.164;2023-05-19T11:43:14;23.80;99.90
21193;DHT22;10754;51.106;7.164;2023-05-19T11:45:41;23.70;99.90
21193;DHT22;10754;51.106;7.164;2023-05-19T11:48:10;23.80;99.90
21193;DHT22;10754;51.106;7.164;2023-05-19T11:50:36;24.20;99.90
21193;DHT22;10754;51.106;7.164;2023-05-19T11:53:02;24.40;99.90
21193;DHT22;10754;51.106;7.164;2023-05-19T11:55:28;24.70;99.90
21193;DHT22;10754;51.106;7.164;2023-05-19T11:57:57;24.60;99.90
21193;DHT22;10754;51.106;7.164;2023-05-19T12:00:27;25.00;99.90
21193;DHT22;10754;51.106;7.164;2023-05-19T12:02:53;25.30;99.90
21193;DHT22;10754;51.106;7.164;2023-05-19T12:05:20;25.60;99.90
21193;DHT22;10754;51.106;7.164;2023-05-19T12:07:47;25.80;99.90
21193;DHT22;10754;51.106;7.164;2023-05-19T12:10:16;26.10;99.90
21193;DHT22;10754;51.106;7.164;2023-05-19T12:12:41;26.30;99.90
21193;DHT22;10754;51.106;7.164;2023-05-19T12:15:09;26.70;99.90
21193;DHT22;10754;51.106;7.164;2023-05-19T12:17:35;27.00;99.90
21193;DHT22;10754;51.106;7.164;2023-05-19T12:20:01;27.10;99.90
21193;DHT22;10754;51.106;7.164;2023-05-19T12:22:29;27.30;99.90
21193;DHT22;10754;51.106;7.164;2023-05-19T12:24:55;28.10;99.90
21193;DHT22;10754;51.106;7.164;2023-05-19T12:27:24;28.60;99.90
21193;DHT22;10754;51.106;7.164;2023-05-19T12:29:54;29.50;99.90
21193;DHT22;10754;51.106;7.164;2023-05-19T12:32:26;30.70;99.90
21193;DHT22;10754;51.106;7.164;2023-05-19T12:34:55;31.90;99.90
21193;DHT22;10754;51.106;7.164;2023-05-19T12:37:21;32.10;99.90
21193;DHT22;10754;51.106;7.164;2023-05-19T12:39:47;31.50;99.90
21193;DHT22;10754;51.106;7.164;2023-05-19T12:42:14;32.40;99.90
21193;DHT22;10754;51.106;7.164;2023-05-19T12:44:45;33.20;99.90
21193;DHT22;10754;51.106;7.164;2023-05-19T12:47:11;34.30;93.60
21193;DHT22;10754;51.106;7.164;2023-05-19T12:49:56;34.50;62.60
21193;DHT22;10754;51.106;7.164;2023-05-19T12:52:26;33.60;62.10
21193;DHT22;10754;51.106;7.164;2023-05-19T12:57:43;34.00;69.40
21193;DHT22;10754;51.106;7.164;2023-05-19T13:00:16;33.50;55.10
21193;DHT22;10754;51.106;7.164;2023-05-19T13:03:02;32.40;80.20
21193;DHT22;10754;51.106;7.164;2023-05-19T13:05:31;33.00;80.20
21193;DHT22;10754;51.106;7.164;2023-05-19T13:08:18;31.90;97.50
21193;DHT22;10754;51.106;7.164;2023-05-19T13:10:45;32.00;99.90
21193;DHT22;10754;51.106;7.164;2023-05-19T13:13:11;33.60;90.30
21193;DHT22;10754;51.106;7.164;2023-05-19T13:15:39;31.60;99.90
21193;DHT22;10754;51.106;7.164;2023-05-19T13:18:07;30.20;99.90
21193;DHT22;10754;51.106;7.164;2023-05-19T13:20:33;29.80;99.90
21193;DHT22;10754;51.106;7.164;2023-05-19T13:22:59;30.70;99.90
21193;DHT22;10754;51.106;7.164;2023-05-19T13:25:25;32.60;99.90
21193;DHT22;10754;51.106;7.164;2023-05-19T13:27:51;33.60;99.90
21193;DHT22;10754;51.106;7.164;2023-05-19T13:30:17;34.10;99.90
21193;DHT22;10754;51.106;7.164;2023-05-19T13:32:44;34.50;99.90
21193;DHT22;10754;51.106;7.164;2023-05-19T13:35:11;33.50;99.90
21193;DHT22;10754;51.106;7.164;2023-05-19T13:37:36;31.30;99.90
21193;DHT22;10754;51.106;7.164;2023-05-19T13:40:04;30.70;99.90
21193;DHT22;10754;51.106;7.164;2023-05-19T13:42:31;31.60;99.90
21193;DHT22;10754;51.106;7.164;2023-05-19T13:44:56;32.80;99.90
21193;DHT22;10754;51.106;7.164;2023-05-19T13:47:22;32.80;99.90
21193;DHT22;10754;51.106;7.164;2023-05-19T13:49:48;31.90;99.90
21193;DHT22;10754;51.106;7.164;2023-05-19T13:52:13;32.80;99.90
21193;DHT22;10754;51.106;7.164;2023-05-19T13:54:39;33.10;99.90
21193;DHT22;10754;51.106;7.164;2023-05-19T13:57:05;33.20;99.90
21193;DHT22;10754;51.106;7.164;2023-05-19T13:59:31;32.30;99.90
21193;DHT22;10754;51.106;7.164;2023-05-19T14:01:56;30.70;99.90
21193;DHT22;10754;51.106;7.164;2023-05-19T14:04:22;30.60;99.90
21193;DHT22;10754;51.106;7.164;2023-05-19T14:06:49;31.80;99.90
21193;DHT22;10754;51.106;7.164;2023-05-19T14:09:15;32.40;99.90
21193;DHT22;10754;51.106;7.164;2023-05-19T14:11:41;32.90;99.90
21193;DHT22;10754;51.106;7.164;2023-05-19T14:14:06;32.90;99.90
21193;DHT22;10754;51.106;7.164;2023-05-19T14:16:32;32.90;99.90
21193;DHT22;10754;51.106;7.164;2023-05-19T14:18:57;31.80;99.90
21193;DHT22;10754;51.106;7.164;2023-05-19T14:21:23;30.50;99.90
21193;DHT22;10754;51.106;7.164;2023-05-19T14:23:48;29.90;99.90
21193;DHT22;10754;51.106;7.164;2023-05-19T14:26:14;30.00;99.90
21193;DHT22;10754;51.106;7.164;2023-05-19T14:28:40;30.00;99.90
21193;DHT22;10754;51.106;7.164;2023-05-19T14:31:10;29.70;99.90
21193;DHT22;10754;51.106;7.164;2023-05-19T14:33:36;29.10;99.90
21193;DHT22;10754;51.106;7.164;2023-05-19T14:36:02;28.80;99.90
21193;DHT22;10754;51.106;7.164;2023-05-19T14:38:27;28.60;99.90
21193;DHT22;10754;51.106;7.164;2023-05-19T14:40:53;28.40;99.90
21193;DHT22;10754;51.106;7.164;2023-05-19T14:43:18;28.20;99.90
21193;DHT22;10754;51.106;7.164;2023-05-19T14:45:44;28.10;99.90
21193;DHT22;10754;51.106;7.164;2023-05-19T14:48:09;27.90;99.90
21193;DHT22;10754;51.106;7.164;2023-05-19T14:50:36;27.80;99.90
21193;DHT22;10754;51.106;7.164;2023-05-19T14:53:02;27.70;99.90
21193;DHT22;10754;51.106;7.164;2023-05-19T14:55:27;27.50;99.90
21193;DHT22;10754;51.106;7.164;2023-05-19T14:57:53;27.40;99.90
21193;DHT22;10754;51.106;7.164;2023-05-19T15:00:18;27.30;99.90
21193;DHT22;10754;51.106;7.164;2023-05-19T15:02:44;27.20;99.90
21193;DHT22;10754;51.106;7.164;2023-05-19T15:05:10;27.20;99.90
21193;DHT22;10754;51.106;7.164;2023-05-19T15:07:36;27.10;99.90
21193;DHT22;10754;51.106;7.164;2023-05-19T15:10:02;26.80;99.90
21193;DHT22;10754;51.106;7.164;2023-05-19T15:12:28;26.70;99.90
21193;DHT22;10754;51.106;7.164;2023-05-19T15:14:54;26.60;99.90
21193;DHT22;10754;51.106;7.164;2023-05-19T15:17:19;26.40;99.90
21193;DHT22;10754;51.106;7.164;2023-05-19T15:19:45;26.40;99.90
21193;DHT22;10754;51.106;7.164;2023-05-19T15:22:10;26.20;99.90
21193;DHT22;10754;51.106;7.164;2023-05-19T15:24:36;26.00;99.90
21193;DHT22;10754;51.106;7.164;2023-05-19T15:27:01;25.90;99.90
21193;DHT22;10754;51.106;7.164;2023-05-19T15:29:27;25.70;99.90
21193;DHT22;10754;51.106;7.164;2023-05-19T15:31:52;25.70;99.90
21193;DHT22;10754;51.106;7.164;2023-05-19T15:34:19;25.60;99.90
21193;DHT22;10754;51.106;7.164;2023-05-19T15:36:45;25.50;99.90
21193;DHT22;10754;51.106;7.164;2023-05-19T15:39:10;25.30;99.90
21193;DHT22;10754;51.106;7.164;2023-05-19T15:41:36;25.20;99.90
21193;DHT22;10754;51.106;7.164;2023-05-19T15:44:01;25.10;99.90
21193;DHT22;10754;51.106;7.164;2023-05-19T15:46:28;25.10;99.90
21193;DHT22;10754;51.106;7.164;2023-05-19T15:48:54;25.00;99.90
21193;DHT22;10754;51.106;7.164;2023-05-19T15:51:19;24.90;99.90
21193;DHT22;10754;51.106;7.164;2023-05-19T15:53:45;24.80;99.90
21193;DHT22;10754;51.106;7.164;2023-05-19T15:56:10;24.70;99.90